Time;durP1;ratioP1;P1;durP2;ratioP2;P2;SDS_P1;SDS_P2;PMS_P1;PMS_P2;Temp;Humidity;BMP_temperature;BMP_pressure;BME280_temperature;BME280_humidity;BME280_pressure;Samples;Min_cycle;Max_cycle;Signal;HPM_P1;HPM_P2
2022/04/05 00:00:11;;;;;;;10.43;7.55;;;5.60;1.00;;;;;;7360569;19;20054;-60
2022/04/05 00:02:41;;;;;;;12.27;7.20;;;5.70;1.00;;;;;;7382131;19;20458;-61
2022/04/05 00:05:11;;;;;;;8.68;7.32;;;5.60;1.00;;;;;;7357735;19;20468;-61
2022/04/05 00:07:41;;;;;;;13.18;7.68;;;5.60;1.00;;;;;;7360807;19;20070;-62
2022/04/05 00:12:51;;;;;;;8.82;6.53;;;5.70;1.00;;;;;;7360415;19;20010;-61
2022/04/05 00:15:21;;;;;;;9.50;7.30;;;5.70;1.00;;;;;;7355283;19;20019;-61
2022/04/05 00:17:50;;;;;;;9.35;7.40;;;5.70;1.00;;;;;;7382128;19;20010;-61
2022/04/05 00:20:20;;;;;;;10.43;6.68;;;5.70;1.00;;;;;;7361602;19;20021;-61
2022/04/05 00:22:50;;;;;;;10.18;6.93;;;5.70;1.00;;;;;;7358999;19;20960;-61
2022/04/05 00:25:23;;;;;;;9.95;7.00;;;5.80;1.00;;;;;;7358409;19;20082;-61
2022/04/05 00:27:53;;;;;;;9.18;6.85;;;5.80;1.00;;;;;;7359108;19;20018;-62
2022/04/05 00:30:22;;;;;;;7.53;6.30;;;5.70;1.00;;;;;;7362513;19;20775;-61
2022/04/05 00:32:52;;;;;;;10.38;6.75;;;5.80;1.00;;;;;;7381357;19;20202;-61
2022/04/05 00:35:23;;;;;;;10.85;7.30;;;5.80;1.00;;;;;;7356690;19;20021;-61
2022/04/05 00:37:53;;;;;;;9.32;6.88;;;5.80;1.00;;;;;;7359008;19;20021;-61
2022/04/05 00:40:26;;;;;;;11.90;6.95;;;5.80;1.00;;;;;;7361486;19;20010;-61
2022/04/05 00:42:57;;;;;;;11.30;7.30;;;5.80;1.00;;;;;;7359280;19;20010;-61
2022/04/05 00:45:26;;;;;;;9.32;6.55;;;5.80;1.00;;;;;;7357447;19;20110;-60
2022/04/05 00:47:59;;;;;;;10.85;6.65;;;5.80;1.00;;;;;;7380179;19;20430;-60
2022/04/05 00:50:29;;;;;;;8.93;7.05;;;5.80;1.00;;;;;;7361505;19;20025;-60
2022/04/05 00:53:02;;;;;;;8.30;6.60;;;5.80;1.00;;;;;;7358915;19;20078;-62
2022/04/05 00:55:35;;;;;;;8.13;6.57;;;5.80;1.00;;;;;;7356279;19;20086;-61
2022/04/05 00:58:07;;;;;;;9.30;6.43;;;5.80;1.00;;;;;;7358975;19;20097;-60
2022/04/05 01:00:39;;;;;;;11.50;6.57;;;5.80;1.00;;;;;;7362290;19;20090;-60
2022/04/05 01:03:09;;;;;;;11.90;6.80;;;5.80;1.00;;;;;;7356854;19;20014;-60
2022/04/05 01:05:40;;;;;;;8.10;6.60;;;5.80;1.00;;;;;;7379363;19;20022;-59
2022/04/05 01:08:12;;;;;;;10.88;7.05;;;5.80;1.00;;;;;;7358052;19;20014;-61
2022/04/05 01:10:45;;;;;;;9.45;6.57;;;5.80;1.00;;;;;;7360757;19;20061;-61
2022/04/05 01:13:15;;;;;;;10.27;7.20;;;5.80;1.00;;;;;;7363554;19;20010;-61
2022/04/05 01:15:45;;;;;;;9.80;7.18;;;5.80;1.00;;;;;;7365467;19;20090;-60
2022/04/05 01:18:16;;;;;;;10.10;6.95;;;5.80;1.00;;;;;;7366103;19;20053;-61
2022/04/05 01:20:46;;;;;;;10.00;6.80;;;5.80;1.00;;;;;;7390924;19;20466;-61
2022/04/05 01:23:16;;;;;;;11.50;7.22;;;5.80;1.00;;;;;;7362668;19;20014;-60
2022/04/05 01:25:48;;;;;;;9.65;7.32;;;5.70;1.00;;;;;;7366805;19;20027;-60
2022/04/05 01:28:18;;;;;;;13.02;7.57;;;5.60;1.00;;;;;;7365508;19;20016;-61
2022/04/05 01:30:48;;;;;;;9.52;7.40;;;5.70;1.00;;;;;;7369033;19;20090;-60
2022/04/05 01:33:18;;;;;;;11.98;8.25;;;5.60;1.00;;;;;;7362835;19;20003;-61
2022/04/05 01:35:49;;;;;;;10.90;7.60;;;5.60;1.00;;;;;;7386836;19;20018;-61
2022/04/05 01:38:19;;;;;;;10.63;7.55;;;5.70;1.00;;;;;;7364611;19;20013;-60
2022/04/05 01:40:51;;;;;;;8.95;6.50;;;5.60;1.00;;;;;;7366343;19;20089;-60
2022/04/05 01:43:21;;;;;;;11.07;7.75;;;5.60;1.00;;;;;;7362283;19;20018;-61
2022/04/05 01:45:51;;;;;;;10.50;7.25;;;5.60;1.00;;;;;;7365976;19;20021;-60
2022/04/05 01:48:21;;;;;;;10.30;6.35;;;5.60;1.00;;;;;;7364089;19;20017;-60
2022/04/05 01:50:51;;;;;;;10.50;7.43;;;5.60;1.00;;;;;;7390965;19;20097;-61
2022/04/05 01:53:21;;;;;;;11.55;7.18;;;5.60;1.00;;;;;;7366493;19;20017;-62
2022/04/05 01:55:54;;;;;;;10.10;7.72;;;5.60;1.00;;;;;;7364157;19;20025;-62
2022/04/05 01:58:24;;;;;;;12.48;7.20;;;5.60;1.00;;;;;;7363720;19;20401;-61
2022/04/05 02:00:57;;;;;;;11.50;7.32;;;5.60;1.00;;;;;;7366963;19;20085;-62
2022/04/05 02:03:27;;;;;;;9.55;7.50;;;5.60;1.00;;;;;;7365581;19;20007;-60
2022/04/05 02:05:59;;;;;;;11.55;7.65;;;5.60;1.00;;;;;;7364952;19;20102;-63
2022/04/05 02:08:29;;;;;;;10.02;7.30;;;5.50;1.50;;;;;;7382152;19;20072;-62
2022/04/05 02:11:01;;;;;;;13.50;7.63;;;5.50;3.00;;;;;;7366636;19;20021;-61
2022/04/05 02:13:34;;;;;;;9.82;7.45;;;5.50;2.70;;;;;;7364106;19;20082;-62
2022/04/05 02:16:07;;;;;;;12.00;7.30;;;5.50;3.20;;;;;;7365452;19;20047;-60
2022/04/05 02:18:38;;;;;;;9.52;8.02;;;5.40;2.90;;;;;;7363248;19;20007;-60
2022/04/05 02:21:08;;;;;;;11.65;7.78;;;5.40;4.50;;;;;;7367431;19;20339;-61
2022/04/05 02:23:38;;;;;;;11.25;7.43;;;5.40;6.10;;;;;;7380086;19;20017;-61
2022/04/05 02:26:12;;;;;;;10.93;7.75;;;5.30;5.20;;;;;;7358461;19;20033;-61
2022/04/05 02:28:42;;;;;;;13.93;8.13;;;5.30;6.20;;;;;;7363117;19;20505;-61
2022/04/05 02:31:12;;;;;;;11.93;8.20;;;5.20;6.00;;;;;;7364436;19;20078;-61
2022/04/05 02:33:42;;;;;;;14.70;8.25;;;5.20;8.40;;;;;;7362527;19;20424;-61
2022/04/05 02:36:12;;;;;;;14.45;7.68;;;5.20;9.10;;;;;;7363121;19;20006;-61
2022/04/05 02:38:42;;;;;;;12.85;8.60;;;5.20;10.20;;;;;;7386281;19;20018;-61
2022/04/05 02:41:14;;;;;;;12.38;8.38;;;5.20;9.60;;;;;;7365296;19;20426;-61
2022/04/05 02:43:44;;;;;;;11.93;7.65;;;5.20;11.20;;;;;;7362922;19;20006;-61
2022/04/05 02:46:14;;;;;;;17.25;8.18;;;5.10;12.10;;;;;;7362508;19;20006;-61
2022/04/05 02:48:46;;;;;;;10.50;7.93;;;5.10;12.00;;;;;;7362354;19;20015;-62
2022/04/05 02:51:17;;;;;;;11.80;7.47;;;5.10;11.50;;;;;;7366228;19;20018;-61
2022/04/05 02:53:46;;;;;;;12.10;8.20;;;5.10;12.70;;;;;;7384179;19;20364;-61
2022/04/05 02:56:19;;;;;;;12.63;8.68;;;5.10;14.60;;;;;;7362588;19;20111;-63
2022/04/05 02:58:49;;;;;;;12.75;8.73;;;5.10;14.80;;;;;;7363668;19;20007;-61
2022/04/05 03:01:19;;;;;;;11.93;8.23;;;5.10;15.90;;;;;;7365165;19;20115;-61
2022/04/05 03:03:49;;;;;;;12.02;8.18;;;5.00;16.00;;;;;;7361715;19;20011;-61
2022/04/05 03:06:19;;;;;;;13.57;8.90;;;5.00;17.00;;;;;;7361664;19;20828;-61
2022/04/05 03:08:52;;;;;;;11.75;7.93;;;5.00;19.50;;;;;;7383351;19;20014;-61
2022/04/05 03:11:26;;;;;;;14.93;8.43;;;4.90;18.70;;;;;;7363771;19;20586;-61
2022/04/05 03:13:55;;;;;;;12.65;8.68;;;4.90;17.00;;;;;;7360605;19;20011;-61
2022/04/05 03:16:26;;;;;;;13.32;8.75;;;5.00;18.00;;;;;;7362080;19;20010;-60
2022/04/05 03:18:56;;;;;;;13.77;8.43;;;5.00;17.50;;;;;;7363157;19;20097;-59
2022/04/05 03:21:26;;;;;;;15.68;8.98;;;5.00;17.40;;;;;;7364013;19;20455;-62
2022/04/05 03:23:55;;;;;;;13.07;9.10;;;5.00;17.70;;;;;;7381213;19;20378;-61
2022/04/05 03:26:29;;;;;;;14.90;8.82;;;5.00;17.90;;;;;;7362310;19;20003;-61
2022/04/05 03:28:59;;;;;;;12.88;8.10;;;5.00;18.70;;;;;;7362621;19;20014;-61
2022/04/05 03:31:29;;;;;;;13.75;8.95;;;5.00;18.20;;;;;;7362549;19;20014;-61
2022/04/05 03:33:59;;;;;;;17.40;9.80;;;4.90;19.50;;;;;;7362646;19;20023;-60
2022/04/05 03:36:29;;;;;;;14.20;9.23;;;4.80;21.70;;;;;;7361689;19;20014;-61
2022/04/05 03:39:00;;;;;;;17.08;8.95;;;4.80;21.90;;;;;;7384592;19;20045;-60
2022/04/05 03:41:32;;;;;;;13.48;9.60;;;4.80;23.90;;;;;;7364053;19;20782;-62
2022/04/05 03:44:02;;;;;;;14.80;9.07;;;4.80;23.70;;;;;;7362629;19;20011;-62
2022/04/05 03:46:32;;;;;;;14.82;9.95;;;4.70;24.70;;;;;;7360980;19;20010;-61
2022/04/05 03:49:02;;;;;;;15.10;9.90;;;4.70;26.80;;;;;;7362712;19;20065;-61
2022/04/05 03:51:32;;;;;;;13.88;9.82;;;4.70;28.10;;;;;;7363516;19;20014;-61
2022/04/05 03:54:02;;;;;;;14.10;10.00;;;4.70;29.70;;;;;;7384027;19;20385;-61
2022/04/05 03:56:34;;;;;;;12.68;8.82;;;4.70;27.90;;;;;;7360108;19;20357;-61
2022/04/05 03:59:04;;;;;;;11.60;9.07;;;4.80;26.30;;;;;;7362289;19;20019;-61
2022/04/05 04:01:34;;;;;;;16.75;9.77;;;4.80;27.70;;;;;;7362348;19;20014;-61
2022/04/05 04:04:04;;;;;;;12.13;8.90;;;4.80;26.30;;;;;;7361910;19;20015;-61
2022/04/05 04:06:34;;;;;;;14.88;8.63;;;4.90;23.20;;;;;;7361765;19;20014;-61
2022/04/05 04:09:04;;;;;;;14.25;9.02;;;4.90;21.90;;;;;;7380336;19;20129;-63
2022/04/05 04:11:37;;;;;;;14.43;9.18;;;4.90;21.10;;;;;;7383893;19;20014;-61
2022/04/05 04:14:07;;;;;;;12.48;7.97;;;4.90;20.50;;;;;;7360091;19;20014;-61
2022/04/05 04:16:37;;;;;;;15.30;8.98;;;4.90;20.20;;;;;;7360385;19;20091;-61
2022/04/05 04:19:07;;;;;;;15.15;9.68;;;4.90;21.10;;;;;;7361724;19;20376;-61
2022/04/05 04:21:37;;;;;;;15.00;8.80;;;4.90;21.60;;;;;;7361662;19;20608;-61
2022/04/05 04:24:08;;;;;;;13.63;8.50;;;4.90;21.10;;;;;;7358783;19;20017;-62
2022/04/05 04:26:40;;;;;;;17.77;9.23;;;4.90;21.30;;;;;;7381393;19;20014;-62
2022/04/05 04:29:10;;;;;;;14.20;9.10;;;4.90;19.50;;;;;;7361395;19;20014;-62
2022/04/05 04:31:40;;;;;;;13.05;8.77;;;4.90;19.60;;;;;;7361085;19;20007;-61
2022/04/05 04:34:09;;;;;;;14.00;8.60;;;4.90;23.00;;;;;;7359456;19;20025;-62
2022/04/05 04:36:40;;;;;;;16.73;9.25;;;4.90;23.40;;;;;;7360706;19;20565;-61
2022/04/05 04:39:10;;;;;;;16.60;10.02;;;4.90;25.00;;;;;;7361705;19;20405;-62
2022/04/05 04:41:43;;;;;;;16.00;9.82;;;4.90;26.30;;;;;;7383338;19;20062;-62
2022/04/05 04:44:13;;;;;;;19.63;10.48;;;4.80;26.30;;;;;;7356853;19;20015;-60
2022/04/05 04:46:43;;;;;;;15.38;10.55;;;4.90;28.40;;;;;;7362632;19;20018;-60
2022/04/05 04:49:13;;;;;;;17.05;10.57;;;4.80;28.90;;;;;;7366821;19;20046;-62
2022/04/05 04:51:43;;;;;;;16.88;10.30;;;4.70;30.30;;;;;;7369225;19;20674;-60
2022/04/05 04:54:13;;;;;;;15.57;10.27;;;4.70;31.20;;;;;;7364243;19;20006;-60
2022/04/05 04:56:45;;;;;;;16.48;11.00;;;4.70;31.90;;;;;;7388106;19;20010;-62
2022/04/05 04:59:15;;;;;;;19.23;12.55;;;4.70;33.50;;;;;;7368426;19;20011;-61
2022/04/05 05:01:45;;;;;;;20.35;12.40;;;4.80;34.80;;;;;;7366932;19;20125;-61
2022/04/05 05:04:15;;;;;;;18.45;11.00;;;4.70;35.40;;;;;;7361601;19;20765;-62
2022/04/05 05:06:45;;;;;;;15.38;10.40;;;4.70;37.10;;;;;;7365418;19;20434;-61
2022/04/05 05:09:15;;;;;;;18.27;10.98;;;4.70;36.90;;;;;;7367889;19;20106;-61
2022/04/05 05:11:47;;;;;;;14.35;10.20;;;4.70;38.50;;;;;;7389146;19;20010;-61
2022/04/05 05:14:17;;;;;;;15.60;10.93;;;4.70;37.80;;;;;;7360585;19;20008;-61
2022/04/05 05:16:47;;;;;;;18.55;11.25;;;4.70;35.40;;;;;;7365758;19;20029;-61
2022/04/05 05:19:17;;;;;;;18.85;11.27;;;4.70;36.20;;;;;;7367238;19;20010;-61
2022/04/05 05:21:47;;;;;;;19.88;10.98;;;4.80;38.10;;;;;;7366762;19;20466;-62
2022/04/05 05:24:17;;;;;;;17.90;11.15;;;4.80;39.10;;;;;;7362463;19;20021;-59
2022/04/05 05:26:50;;;;;;;15.48;10.70;;;4.70;39.50;;;;;;7386934;19;20104;-60
2022/04/05 05:29:19;;;;;;;15.48;10.48;;;4.70;40.80;;;;;;7366794;19;20079;-60
2022/04/05 05:31:49;;;;;;;17.98;10.77;;;4.70;41.40;;;;;;7366185;19;20074;-60
2022/04/05 05:34:22;;;;;;;18.17;11.20;;;4.70;42.00;;;;;;7360573;19;20013;-60
2022/04/05 05:36:53;;;;;;;16.35;11.15;;;4.80;42.10;;;;;;7364680;19;20025;-61
2022/04/05 05:39:22;;;;;;;17.58;10.57;;;4.80;42.20;;;;;;7366004;19;20037;-60
2022/04/05 05:41:55;;;;;;;17.95;11.52;;;4.80;42.20;;;;;;7388490;19;20017;-62
2022/04/05 05:44:25;;;;;;;19.88;11.90;;;4.80;42.10;;;;;;7358695;19;20397;-60
2022/04/05 05:46:55;;;;;;;21.42;12.18;;;4.80;42.00;;;;;;7363561;19;20006;-60
2022/04/05 05:49:25;;;;;;;18.25;11.60;;;4.90;42.90;;;;;;7366627;19;20010;-60
2022/04/05 05:51:55;;;;;;;19.40;11.80;;;4.90;43.00;;;;;;7365226;19;20018;-60
2022/04/05 05:54:29;;;;;;;21.75;13.05;;;4.90;43.60;;;;;;7360121;19;20012;-61
2022/04/05 05:57:01;;;;;;;21.58;13.30;;;4.90;43.50;;;;;;7386224;19;20014;-61
2022/04/05 05:59:31;;;;;;;20.83;12.50;;;4.90;44.30;;;;;;7366774;19;20618;-61
2022/04/05 06:02:01;;;;;;;23.98;12.57;;;4.90;44.50;;;;;;7365076;19;20009;-60
2022/04/05 06:04:31;;;;;;;23.20;12.45;;;4.90;44.20;;;;;;7358576;19;20011;-60
2022/04/05 06:07:01;;;;;;;19.35;12.10;;;4.90;45.10;;;;;;7363500;19;20010;-61
2022/04/05 06:09:31;;;;;;;17.63;11.52;;;4.90;44.60;;;;;;7366991;19;20029;-61
2022/04/05 06:12:05;;;;;;;24.83;11.88;;;4.90;45.10;;;;;;7386848;19;20033;-61
2022/04/05 06:14:35;;;;;;;18.23;12.18;;;4.90;45.30;;;;;;7357960;19;20281;-60
2022/04/05 06:17:06;;;;;;;22.50;12.93;;;5.00;45.40;;;;;;7360222;19;20011;-60
2022/04/05 06:19:37;;;;;;;22.25;11.48;;;5.00;45.90;;;;;;7366684;19;20053;-61
2022/04/05 06:22:07;;;;;;;24.05;12.20;;;5.00;45.60;;;;;;7365058;19;20025;-61
2022/04/05 06:24:38;;;;;;;16.77;11.27;;;5.00;45.50;;;;;;7358401;19;20007;-61
2022/04/05 06:27:10;;;;;;;19.60;10.98;;;5.00;43.90;;;;;;7362159;19;20490;-61
2022/04/05 06:29:40;;;;;;;19.25;12.45;;;5.10;42.90;;;;;;7386710;19;20025;-63
2022/04/05 06:32:10;;;;;;;19.45;11.90;;;5.00;42.20;;;;;;7365242;19;20013;-60
2022/04/05 06:34:40;;;;;;;17.40;10.98;;;5.10;42.10;;;;;;7357905;19;20021;-61
2022/04/05 06:37:10;;;;;;;19.58;10.65;;;5.10;41.10;;;;;;7362841;19;20010;-62
2022/04/05 06:39:40;;;;;;;18.27;10.35;;;5.10;40.60;;;;;;7364427;19;20022;-60
2022/04/05 06:42:13;;;;;;;15.68;10.55;;;5.10;38.30;;;;;;7365656;19;20006;-62
2022/04/05 06:44:42;;;;;;;19.35;10.50;;;5.20;37.60;;;;;;7378663;19;20014;-61
2022/04/05 06:47:12;;;;;;;18.05;10.13;;;5.20;36.20;;;;;;7363689;19;20049;-61
2022/04/05 06:49:45;;;;;;;20.35;9.90;;;5.20;34.00;;;;;;7364396;19;20010;-63
2022/04/05 06:52:15;;;;;;;20.13;10.50;;;5.20;34.10;;;;;;7363511;19;20609;-61
2022/04/05 06:54:45;;;;;;;19.00;9.70;;;5.20;34.00;;;;;;7357682;19;20125;-62
2022/04/05 06:57:18;;;;;;;12.52;8.88;;;5.20;34.00;;;;;;7362728;19;20011;-61
2022/04/05 06:59:51;;;;;;;13.68;9.15;;;5.20;31.80;;;;;;7384711;19;20015;-62
2022/04/05 07:02:22;;;;;;;14.98;8.73;;;5.20;34.00;;;;;;7364422;19;20017;-61
2022/04/05 07:04:52;;;;;;;16.25;9.48;;;5.20;32.80;;;;;;7356301;19;20014;-60
2022/04/05 07:07:21;;;;;;;13.38;9.02;;;5.20;32.20;;;;;;7362449;19;20010;-61
2022/04/05 07:09:51;;;;;;;13.63;8.48;;;5.20;31.80;;;;;;7363694;19;20018;-62
2022/04/05 07:12:24;;;;;;;16.77;9.32;;;5.30;33.60;;;;;;7363707;19;20015;-61
2022/04/05 07:14:54;;;;;;;15.07;9.70;;;5.30;34.10;;;;;;7377195;19;20462;-60
2022/04/05 07:17:25;;;;;;;22.40;13.35;;;5.30;33.80;;;;;;7361816;19;20355;-60
2022/04/05 07:20:15;;;;;;;14.07;9.18;;;5.40;34.10;;;;;;7364650;19;20021;-61
2022/04/05 07:22:49;;;;;;;18.15;10.00;;;5.40;33.00;;;;;;7364321;19;20502;-61
2022/04/05 07:25:21;;;;;;;16.55;8.95;;;5.40;34.20;;;;;;7357550;19;20020;-61
2022/04/05 07:27:54;;;;;;;17.08;9.68;;;5.40;33.20;;;;;;7361627;19;20014;-61
2022/04/05 07:30:24;;;;;;;23.40;10.43;;;5.50;33.30;;;;;;7363101;19;20018;-62
2022/04/05 07:32:54;;;;;;;17.60;9.98;;;5.60;34.30;;;;;;7386294;19;20011;-61
2022/04/05 07:35:24;;;;;;;17.17;9.85;;;5.60;34.40;;;;;;7355189;19;20089;-61
2022/04/05 07:37:54;;;;;;;18.27;9.70;;;5.60;34.30;;;;;;7360865;19;20620;-60
2022/04/05 07:40:27;;;;;;;17.58;10.07;;;5.70;33.50;;;;;;7363067;19;20763;-60
2022/04/05 07:42:59;;;;;;;20.10;10.55;;;5.70;33.10;;;;;;7362392;19;20418;-60
2022/04/05 07:45:30;;;;;;;16.83;10.05;;;5.70;33.00;;;;;;7355688;19;20724;-60
2022/04/05 07:48:00;;;;;;;21.40;12.13;;;5.70;33.00;;;;;;7383451;19;20371;-60
2022/04/05 07:50:30;;;;;;;13.82;8.38;;;5.80;34.50;;;;;;7362085;19;20110;-61
2022/04/05 07:53:00;;;;;;;14.95;9.02;;;5.80;33.70;;;;;;7362202;19;20016;-61
2022/04/05 07:55:30;;;;;;;17.02;9.00;;;5.90;34.50;;;;;;7355768;19;20021;-61
2022/04/05 07:58:03;;;;;;;16.65;8.98;;;5.90;34.60;;;;;;7361445;19;20002;-60
2022/04/05 08:00:32;;;;;;;13.07;8.82;;;6.00;34.70;;;;;;7363431;19;20016;-60
2022/04/05 08:03:02;;;;;;;23.02;9.85;;;6.00;34.70;;;;;;7384841;19;20010;-60
2022/04/05 08:05:32;;;;;;;16.13;9.52;;;6.00;36.20;;;;;;7354351;19;20025;-61
2022/04/05 08:08:02;;;;;;;16.42;10.25;;;6.10;35.90;;;;;;7359874;19;20014;-61
2022/04/05 08:10:32;;;;;;;14.45;10.07;;;6.20;36.20;;;;;;7362177;19;20010;-61
2022/04/05 08:13:05;;;;;;;16.63;8.98;;;6.20;36.70;;;;;;7362352;19;20786;-62
2022/04/05 08:15:35;;;;;;;18.92;8.68;;;6.20;34.80;;;;;;7354350;19;20086;-62
2022/04/05 08:18:06;;;;;;;28.73;11.60;;;6.20;32.80;;;;;;7366581;19;20011;-62
2022/04/05 08:20:36;;;;;;;16.70;9.52;;;6.30;34.90;;;;;;7384043;19;20019;-61
2022/04/05 08:23:06;;;;;;;22.00;10.15;;;6.40;36.60;;;;;;7369074;19;20066;-60
2022/04/05 08:25:36;;;;;;;18.52;10.20;;;6.30;36.30;;;;;;7362700;19;20361;-60
2022/04/05 08:28:09;;;;;;;16.27;8.75;;;6.40;36.90;;;;;;7367266;19;20101;-61
2022/04/05 08:30:39;;;;;;;11.55;8.38;;;6.30;33.90;;;;;;7369143;19;20014;-61
2022/04/05 08:33:09;;;;;;;12.88;8.82;;;6.40;35.40;;;;;;7369646;19;20099;-61
2022/04/05 08:35:39;;;;;;;13.88;9.77;;;6.20;33.60;;;;;;7381250;19;20021;-61
2022/04/05 08:38:10;;;;;;;15.65;11.75;;;6.40;37.70;;;;;;7366474;19;20036;-60
2022/04/05 08:40:40;;;;;;;13.40;9.30;;;6.40;39.70;;;;;;7368746;19;20014;-60
2022/04/05 08:43:12;;;;;;;16.40;10.60;;;6.30;38.70;;;;;;7368269;19;21300;-61
2022/04/05 08:45:55;;;;;;;17.00;9.95;;;6.40;40.40;;;;;;7360535;19;20097;-60
2022/04/05 08:48:27;;;;;;;16.20;10.35;;;6.50;41.30;;;;;;7367255;19;20008;-61
2022/04/05 08:50:59;;;;;;;15.23;10.93;;;6.60;41.40;;;;;;7390360;19;20074;-60
2022/04/05 08:53:29;;;;;;;18.95;11.43;;;6.50;40.40;;;;;;7367318;19;20014;-61
2022/04/05 08:55:59;;;;;;;16.48;10.50;;;6.60;41.80;;;;;;7361200;19;20060;-60
2022/04/05 08:58:32;;;;;;;14.55;10.15;;;6.50;41.40;;;;;;7364081;19;20018;-61
2022/04/05 09:01:01;;;;;;;16.55;10.52;;;6.60;42.00;;;;;;7366753;19;20020;-61
2022/04/05 09:03:32;;;;;;;12.57;9.13;;;6.60;41.20;;;;;;7367184;19;20010;-60
2022/04/05 09:06:29;;;;;;;17.08;10.45;;;6.60;41.50;;;;;;7378981;19;20018;-61
2022/04/05 09:09:13;;;;;;;15.10;11.27;;;6.70;41.20;;;;;;7262277;19;2004461;-61
2022/04/05 09:11:47;;;;;;;18.38;11.98;;;6.70;42.50;;;;;;7387259;19;20026;-61
2022/04/05 09:14:26;;;;;;;19.10;12.10;;;6.70;43.40;;;;;;7360767;19;20470;-61
2022/04/05 09:17:08;;;;;;;18.80;12.23;;;6.70;43.70;;;;;;7361406;19;20534;-61
2022/04/05 09:19:42;;;;;;;16.27;11.50;;;6.70;43.60;;;;;;7365229;19;20881;-61
2022/04/05 09:22:15;;;;;;;13.48;10.98;;;6.80;44.60;;;;;;7367291;19;20015;-61
2022/04/05 09:24:46;;;;;;;18.38;11.57;;;6.80;43.90;;;;;;7359670;19;20033;-61
2022/04/05 09:27:17;;;;;;;17.35;11.18;;;6.80;43.90;;;;;;7362899;19;20214;-60
2022/04/05 09:29:51;;;;;;;15.07;9.88;;;6.90;45.30;;;;;;7387419;19;20018;-61
2022/04/05 09:32:35;;;;;;;15.38;9.73;;;7.10;45.80;;;;;;7363911;19;20010;-61
2022/04/05 09:35:06;;;;;;;16.75;9.55;;;7.10;43.80;;;;;;7358102;19;20642;-61
2022/04/05 09:37:39;;;;;;;16.23;8.70;;;7.10;42.00;;;;;;7363808;19;20011;-61
2022/04/05 09:40:21;;;;;;;12.02;8.35;;;7.10;41.90;;;;;;7368021;19;20016;-61
2022/04/05 09:43:07;;;;;;;12.82;8.57;;;7.20;41.60;;;;;;7367870;19;20041;-61
2022/04/05 09:45:51;;;;;;;15.25;8.88;;;7.20;38.60;;;;;;7355886;19;20511;-61
2022/04/05 09:48:24;;;;;;;10.50;7.65;;;7.20;35.70;;;;;;7362119;19;20024;-61
2022/04/05 09:51:03;;;;;;;11.32;7.85;;;7.20;36.70;;;;;;7386877;19;20018;-61
2022/04/05 09:53:50;;;;;;;16.02;7.95;;;7.30;37.80;;;;;;7362960;19;20019;-61
2022/04/05 09:56:22;;;;;;;13.98;8.80;;;7.40;37.70;;;;;;7357255;19;20434;-62
2022/04/05 09:58:54;;;;;;;12.85;8.68;;;7.40;38.40;;;;;;7361849;19;20006;-61
2022/04/05 10:01:26;;;;;;;14.80;8.00;;;7.40;40.30;;;;;;7363934;19;20039;-61
2022/04/05 10:04:02;;;;;;;11.35;8.40;;;7.40;39.70;;;;;;7363345;19;20082;-62
2022/04/05 10:06:33;;;;;;;11.68;7.43;;;7.40;38.40;;;;;;7358711;19;20057;-61
2022/04/05 10:09:06;;;;;;;13.02;7.68;;;7.50;38.70;;;;;;7385074;19;20014;-61
2022/04/05 10:11:37;;;;;;;16.90;8.60;;;7.50;38.10;;;;;;7363894;19;20015;-61
2022/04/05 10:14:09;;;;;;;15.50;7.80;;;7.50;38.90;;;;;;7362029;19;20074;-62
2022/04/05 10:16:39;;;;;;;12.10;7.90;;;7.50;40.20;;;;;;7359266;19;20025;-61
2022/04/05 10:19:12;;;;;;;11.70;7.65;;;7.50;40.00;;;;;;7363587;19;20014;-62
2022/04/05 10:21:44;;;;;;;13.48;8.38;;;7.60;39.60;;;;;;7365468;19;20027;-63
2022/04/05 10:24:16;;;;;;;14.30;8.73;;;7.60;41.40;;;;;;7359574;19;20022;-62
2022/04/05 10:26:50;;;;;;;13.88;8.18;;;7.60;40.10;;;;;;7380799;19;20017;-61
2022/04/05 10:29:22;;;;;;;9.65;7.55;;;7.60;41.40;;;;;;7363578;19;20179;-61
2022/04/05 10:31:58;;;;;;;10.80;7.18;;;7.70;41.50;;;;;;7363140;19;20550;-61
2022/04/05 10:34:31;;;;;;;9.63;6.82;;;7.60;40.20;;;;;;7358764;19;20702;-61
2022/04/05 10:37:16;;;;;;;11.57;7.20;;;7.70;38.70;;;;;;7361945;19;20018;-62
2022/04/05 10:40:17;;;;;;;14.48;7.88;;;7.70;38.30;;;;;;7363706;19;20018;-61
2022/04/05 10:42:49;;;;;;;12.80;8.10;;;7.80;39.70;;;;;;7363026;19;20014;-61
2022/04/05 10:45:21;;;;;;;12.15;7.45;;;7.90;41.00;;;;;;7355421;19;20094;-62
2022/04/05 10:48:12;;;;;;;17.58;9.55;;;7.90;41.00;;;;;;7381951;19;20108;-62
2022/04/05 10:51:30;;;;;;;15.48;8.93;;;7.90;41.40;;;;;;7360972;19;20036;-62
2022/04/05 10:54:25;;;;;;;13.65;7.65;;;7.90;41.10;;;;;;7259274;19;2005103;-61
2022/04/05 10:57:26;;;;;;;9.90;6.55;;;7.90;40.30;;;;;;7380301;19;20010;-61
2022/04/05 11:00:07;;;;;;;11.52;6.10;;;7.90;39.40;;;;;;7364438;19;20073;-62
2022/04/05 11:02:46;;;;;;;10.98;5.75;;;8.00;38.40;;;;;;7363967;19;20078;-60
2022/04/05 11:05:41;;;;;;;10.23;6.55;;;8.00;36.90;;;;;;7356731;19;20648;-61
2022/04/05 11:08:20;;;;;;;11.10;6.38;;;8.10;38.60;;;;;;7361933;19;20607;-60
2022/04/05 11:10:54;;;;;;;7.38;5.88;;;8.10;39.10;;;;;;7359600;19;20015;-60
2022/04/05 11:13:35;;;;;;;10.15;5.80;;;8.10;38.60;;;;;;7363098;19;20643;-62
2022/04/05 11:16:06;;;;;;;7.53;5.65;;;8.10;39.00;;;;;;7359103;19;20015;-61
2022/04/05 11:18:36;;;;;;;6.65;5.30;;;8.20;39.40;;;;;;7362193;19;20049;-62
2022/04/05 11:21:10;;;;;;;11.85;7.90;;;8.30;38.80;;;;;;7367995;19;20074;-61
2022/04/05 11:23:46;;;;;;;7.57;5.05;;;8.30;38.00;;;;;;7385713;19;20038;-62
2022/04/05 11:26:35;;;;;;;8.27;4.80;;;8.40;36.70;;;;;;7358647;19;20093;-62
2022/04/05 11:29:21;;;;;;;7.80;4.82;;;8.40;35.90;;;;;;7362998;19;20036;-61
2022/04/05 11:32:09;;;;;;;6.88;4.90;;;8.40;35.90;;;;;;7363148;19;20078;-62
2022/04/05 11:34:46;;;;;;;7.25;4.82;;;8.40;34.90;;;;;;7362648;19;20026;-62
2022/04/05 11:37:16;;;;;;;6.63;4.60;;;8.40;35.80;;;;;;7358318;19;20007;-61
2022/04/05 11:39:46;;;;;;;9.00;5.20;;;8.40;33.30;;;;;;7364707;19;20470;-61
2022/04/05 11:42:17;;;;;;;7.80;4.50;;;8.40;35.00;;;;;;7363670;19;20092;-62
2022/04/05 11:44:54;;;;;;;7.25;5.32;;;8.40;34.50;;;;;;7384856;19;20487;-62
2022/04/05 11:47:24;;;;;;;6.78;5.40;;;8.50;36.70;;;;;;7359551;19;20034;-62
2022/04/05 11:49:54;;;;;;;9.30;5.25;;;8.50;36.80;;;;;;7361515;19;20013;-62
2022/04/05 11:52:30;;;;;;;8.82;6.30;;;8.50;36.80;;;;;;7361165;19;20032;-61
2022/04/05 11:57:46;;;;;;;6.80;5.30;;;8.70;37.30;;;;;;7359576;19;20389;-61
2022/04/05 12:00:19;;;;;;;7.68;5.88;;;8.70;39.20;;;;;;7362972;19;20010;-61
2022/04/05 12:03:05;;;;;;;9.23;6.50;;;8.80;39.10;;;;;;7373069;19;20068;-61
2022/04/05 12:05:44;;;;;;;13.48;7.40;;;8.90;38.30;;;;;;7359880;19;20007;-61
2022/04/05 12:08:15;;;;;;;12.38;6.38;;;9.00;38.50;;;;;;7360845;19;20019;-62
2022/04/05 12:10:46;;;;;;;13.27;6.05;;;9.10;39.50;;;;;;7361765;19;20409;-62
2022/04/05 12:13:16;;;;;;;10.05;5.72;;;9.10;39.20;;;;;;7357917;19;20637;-62
2022/04/05 12:15:49;;;;;;;10.60;5.50;;;9.10;38.20;;;;;;7361794;19;20018;-62
2022/04/05 12:18:20;;;;;;;11.02;5.72;;;9.20;37.20;;;;;;7360927;19;20358;-61
2022/04/05 12:21:00;;;;;;;9.57;5.20;;;9.20;33.70;;;;;;7382122;19;20755;-62
2022/04/05 12:23:33;;;;;;;5.95;4.32;;;9.30;33.20;;;;;;7355850;19;20463;-62
2022/04/05 12:26:07;;;;;;;7.43;4.75;;;9.20;27.60;;;;;;7361824;19;20448;-61
2022/04/05 12:28:39;;;;;;;8.00;4.85;;;9.30;30.50;;;;;;7359054;19;20021;-61
2022/04/05 12:31:15;;;;;;;9.63;5.18;;;9.30;32.00;;;;;;7360922;19;20021;-61
2022/04/05 12:33:57;;;;;;;6.40;4.70;;;9.40;32.30;;;;;;7354376;19;20055;-62
2022/04/05 12:36:33;;;;;;;9.02;4.85;;;9.40;29.70;;;;;;7360943;19;20018;-62
2022/04/05 12:39:06;;;;;;;6.13;4.75;;;9.50;30.40;;;;;;7384195;19;20025;-61
2022/04/05 12:41:41;;;;;;;7.72;4.80;;;9.50;30.00;;;;;;7362383;19;20016;-61
2022/04/05 12:44:13;;;;;;;7.72;5.30;;;9.30;29.90;;;;;;7356433;19;20332;-62
2022/04/05 12:46:51;;;;;;;11.00;5.80;;;9.20;30.20;;;;;;7361993;19;20077;-61
2022/04/05 12:49:25;;;;;;;8.07;5.97;;;9.30;32.50;;;;;;7359550;19;20821;-61
2022/04/05 12:52:14;;;;;;;9.02;6.38;;;9.20;33.00;;;;;;7354735;19;20010;-61
2022/04/05 12:54:54;;;;;;;11.80;6.32;;;9.30;33.90;;;;;;7359304;19;20078;-61
2022/04/05 12:57:29;;;;;;;7.35;5.90;;;9.30;32.20;;;;;;7360776;19;20336;-61
2022/04/05 13:00:12;;;;;;;10.60;6.20;;;9.30;30.00;;;;;;7382233;19;20110;-62
2022/04/05 13:02:48;;;;;;;8.75;4.90;;;9.30;28.50;;;;;;7354548;19;20030;-62
2022/04/05 13:08:03;;;;;;;9.35;4.03;;;9.40;28.70;;;;;;7365621;19;20011;-62
2022/04/05 13:10:40;;;;;;;7.03;4.50;;;9.40;24.40;;;;;;7368729;19;20015;-62
2022/04/05 13:13:18;;;;;;;4.55;3.60;;;9.40;26.30;;;;;;7362386;19;20042;-61
2022/04/05 13:15:48;;;;;;;4.47;3.20;;;9.40;26.60;;;;;;7364234;19;20015;-62
2022/04/05 13:18:21;;;;;;;5.57;3.33;;;9.40;24.60;;;;;;7367514;19;20018;-62
2022/04/05 13:21:02;;;;;;;3.40;2.63;;;9.50;24.40;;;;;;7389938;19;20073;-62
2022/04/05 13:23:33;;;;;;;6.60;3.10;;;9.50;26.00;;;;;;7361365;19;20538;-62